Time;durP1;ratioP1;P1;durP2;ratioP2;P2;SDS_P1;SDS_P2;PMS_P1;PMS_P2;Temp;Humidity;BMP_temperature;BMP_pressure;BME280_temperature;BME280_humidity;BME280_pressure;Samples;Min_cycle;Max_cycle;Signal;HPM_P1;HPM_P2
2021/10/02 00:34:57;;;;;;;11.55;7.82;;;;;;;9.99;100.00;95890.88;1032458;28;20260;-67
2021/10/02 00:35:59;;;;;;;12.20;8.45;;;;;;;9.98;100.00;95891.94;1026496;28;20026;-66
2021/10/02 00:41:20;;;;;;;10.65;8.40;;;;;;;9.96;100.00;95895.84;1033503;28;20304;-67
2021/10/02 00:44:47;;;;;;;12.02;8.27;;;;;;;9.94;100.00;95896.09;1029288;28;20291;-67
2021/10/02 00:45:20;;;;;;;11.65;8.77;;;;;;;9.94;100.00;95884.84;1034762;28;20260;-68
2021/10/02 00:45:50;;;;;;;10.77;8.40;;;;;;;9.91;100.00;95888.75;1030748;28;20266;-67
2021/10/02 00:46:22;;;;;;;10.77;8.07;;;;;;;9.91;100.00;95888.75;1026720;28;20269;-67
2021/10/02 00:46:52;;;;;;;10.57;8.07;;;;;;;9.96;100.00;95890.59;1030687;28;20357;-67
2021/10/02 00:47:23;;;;;;;10.60;8.10;;;;;;;9.94;100.00;95883.00;1030626;28;20265;-67
2021/10/02 00:47:54;;;;;;;9.50;7.55;;;;;;;9.94;100.00;95885.63;1026900;28;20536;-67
2021/10/02 00:48:25;;;;;;;12.60;8.35;;;;;;;9.99;100.00;95890.88;1026462;28;20030;-67
2021/10/02 00:48:55;;;;;;;10.73;8.00;;;;;;;9.99;100.00;95893.50;1019004;29;20263;-67
2021/10/02 00:49:26;;;;;;;10.85;8.20;;;;;;;9.92;100.00;95874.59;1026686;28;20014;-68
2021/10/02 00:49:59;;;;;;;11.27;8.10;;;;;;;9.97;100.00;95884.34;1028266;28;20030;-67
2021/10/02 00:50:33;;;;;;;9.70;7.95;;;;;;;9.92;100.00;95879.84;1030753;28;20962;-67
2021/10/02 00:51:03;;;;;;;11.73;8.43;;;;;;;9.98;100.00;95886.69;1022703;29;20030;-67
2021/10/02 00:51:38;;;;;;;9.35;7.78;;;;;;;9.97;100.00;95884.34;1026467;28;20273;-67
2021/10/02 00:52:11;;;;;;;12.23;8.18;;;;;;;9.97;100.00;95887.75;1026572;28;20370;-67
2021/10/02 00:52:42;;;;;;;10.55;8.15;;;;;;;9.97;100.00;95886.94;1022693;29;20783;-67
2021/10/02 00:53:13;;;;;;;10.23;8.13;;;;;;;9.94;100.00;95885.63;1020109;28;20286;-67
2021/10/02 00:53:44;;;;;;;10.80;8.43;;;;;;;9.95;100.00;95883.78;1026635;28;20448;-67
2021/10/02 00:54:14;;;;;;;14.18;8.13;;;;;;;9.87;100.00;95875.38;1026572;28;20321;-67
2021/10/02 00:54:45;;;;;;;10.63;7.97;;;;;;;9.93;100.00;95886.69;1019025;29;20031;-67
2021/10/02 00:55:16;;;;;;;11.00;8.45;;;;;;;9.93;100.00;95888.50;1022565;28;20421;-68
2021/10/02 00:55:46;;;;;;;10.85;8.20;;;;;;;9.92;100.00;95892.94;1019011;29;20032;-66
2021/10/02 00:56:16;;;;;;;12.18;8.20;;;;;;;9.90;100.00;95879.31;1019180;28;20016;-67
2021/10/02 00:56:47;;;;;;;14.35;8.43;;;;;;;9.83;100.00;95876.91;1020742;28;20068;-68
2021/10/02 00:57:17;;;;;;;17.98;8.05;;;;;;;9.82;100.00;95880.56;1019106;29;20027;-67
2021/10/02 00:57:50;;;;;;;13.05;8.70;;;;;;;9.83;100.00;95881.38;1022698;29;20433;-67
2021/10/02 00:58:20;;;;;;;12.77;7.65;;;;;;;9.77;100.00;95872.69;1018992;29;20028;-67
2021/10/02 00:58:51;;;;;;;12.27;8.13;;;;;;;9.80;100.00;95880.03;1018791;29;20272;-67
2021/10/02 00:59:21;;;;;;;12.93;8.90;;;;;;;9.85;100.00;95884.53;1022645;29;20030;-66
2021/10/02 00:59:52;;;;;;;13.02;8.27;;;;;;;9.82;100.00;95882.41;1022955;29;20031;-67
2021/10/02 01:00:23;;;;;;;9.95;8.25;;;;;;;9.81;100.00;95875.59;1021814;29;20579;-67
2021/10/02 01:00:55;;;;;;;10.10;7.20;;;;;;;9.82;100.00;95882.41;1022639;28;20090;-65
2021/10/02 01:01:31;;;;;;;11.00;7.93;;;;;;;9.82;100.00;95877.94;1022741;28;20270;-69
2021/10/02 01:02:25;;;;;;;11.15;8.10;;;;;;;9.80;100.00;95881.88;1023767;28;20298;-67
2021/10/02 01:03:11;;;;;;;12.38;7.72;;;;;;;9.71;100.00;95865.84;1018792;29;20638;-67
2021/10/02 01:03:52;;;;;;;10.82;8.27;;;;;;;9.68;100.00;95874.97;1015988;29;20777;-65
2021/10/02 01:04:47;;;;;;;10.68;7.55;;;;;;;9.75;100.00;95884.47;1017962;29;20291;-65
2021/10/02 01:05:59;;;;;;;10.70;7.43;;;;;;;9.73;100.00;95878.69;1025258;28;20263;-67
2021/10/02 01:06:35;;;;;;;10.65;7.60;;;;;;;9.74;100.00;95885.50;1030347;28;20269;-67
2021/10/02 01:07:22;;;;;;;11.93;7.95;;;;;;;9.74;100.00;95883.69;1030414;28;20320;-67
2021/10/02 01:08:15;;;;;;;13.52;8.27;;;;;;;9.74;100.00;95885.50;1030190;28;20704;-67
2021/10/02 01:09:07;;;;;;;11.10;8.20;;;;;;;9.74;100.00;95870.56;1026423;28;20278;-67
2021/10/02 01:09:40;;;;;;;10.57;8.35;;;;;;;9.72;100.00;95880.50;1020928;29;20294;-67
2021/10/02 01:10:14;;;;;;;10.57;7.78;;;;;;;9.72;100.00;95871.88;1022486;29;20301;-68
2021/10/02 01:10:57;;;;;;;14.27;9.20;;;;;;;9.74;100.00;95877.66;1022475;29;20326;-67
2021/10/02 01:12:12;;;;;;;11.82;7.88;;;;;;;9.73;100.00;95878.69;1026054;28;20338;-68
2021/10/02 01:12:55;;;;;;;10.98;8.30;;;;;;;9.66;100.00;95871.84;1021929;28;20313;-66
2021/10/02 01:13:44;;;;;;;10.90;8.40;;;;;;;9.72;100.00;95880.50;1014518;29;20323;-68
2021/10/02 01:14:36;;;;;;;11.82;8.52;;;;;;;9.75;100.00;95881.84;1014731;29;20291;-67
2021/10/02 01:15:08;;;;;;;10.57;7.70;;;;;;;9.73;100.00;95876.09;1022769;28;20362;-67
2021/10/02 01:16:01;;;;;;;14.55;8.57;;;;;;;9.72;100.00;95869.25;1026682;28;20796;-67
2021/10/02 01:16:36;;;;;;;11.05;8.18;;;;;;;9.74;100.00;95867.94;1021674;29;20317;-67
2021/10/02 01:17:12;;;;;;;10.73;7.97;;;;;;;9.75;100.00;95879.22;1026710;28;20258;-67
2021/10/02 01:17:55;;;;;;;14.13;8.30;;;;;;;9.78;100.00;95878.72;1026684;28;20278;-67
2021/10/02 01:18:29;;;;;;;10.73;8.07;;;;;;;9.81;100.00;95879.00;1022706;29;20290;-67
2021/10/02 01:19:28;;;;;;;10.50;8.80;;;;;;;9.82;100.00;95877.94;1019114;29;20263;-67
2021/10/02 01:20:04;;;;;;;11.52;8.10;;;;;;;9.85;100.00;95881.91;1030682;28;20273;-67
2021/10/02 01:20:56;;;;;;;12.00;8.35;;;;;;;9.83;100.00;95876.13;1031454;28;21089;-67
2021/10/02 01:21:58;;;;;;;9.70;7.45;;;;;;;9.90;100.00;95884.56;1030904;28;20949;-68
2021/10/02 01:22:32;;;;;;;;;;;;;;;9.95;100.00;95883.78;1035114;28;20311;-67
2021/10/02 01:23:28;;;;;;;10.98;7.85;;;;;;;9.99;100.00;95885.63;1031202;28;19987;-67
2021/10/02 01:24:19;;;;;;;11.82;7.32;;;;;;;10.00;100.00;95883.81;1034769;28;20619;-67
2021/10/02 01:25:08;;;;;;;;;;;;;;;9.99;100.00;95880.38;1033112;28;20320;-67
2021/10/02 01:26:09;;;;;;;12.68;7.72;;;;;;;10.01;100.00;95880.16;1026609;28;19953;-67
2021/10/02 01:26:42;;;;;;;10.27;7.50;;;;;;;10.02;100.00;95887.75;1029305;28;20277;-64
2021/10/02 01:27:18;;;;;;;14.35;8.00;;;;;;;10.03;100.00;95888.56;1027301;28;20035;-67
2021/10/02 01:27:54;;;;;;;10.95;7.72;;;;;;;10.00;100.00;95876.75;1028112;28;20313;-67
2021/10/02 01:28:25;;;;;;;12.27;8.57;;;;;;;10.05;100.00;95884.63;1029227;28;21103;-67
2021/10/02 01:28:57;;;;;;;11.25;8.02;;;;;;;10.06;100.00;95880.97;1029202;28;20362;-67
2021/10/02 01:29:28;;;;;;;14.27;8.13;;;;;;;10.08;100.00;95878.88;1027068;28;20031;-67
2021/10/02 01:30:03;;;;;;;11.85;8.05;;;;;;;10.10;100.00;95887.28;1024674;29;21110;-67
2021/10/02 01:31:45;;;;;;;14.57;8.02;;;;;;;10.13;100.00;95880.75;1030769;28;20285;-67
2021/10/02 01:32:33;;;;;;;13.90;7.88;;;;;;;10.08;100.00;95867.59;1034853;28;20045;-67
2021/10/02 01:33:32;;;;;;;10.82;7.82;;;;;;;10.15;100.00;95874.19;1027200;28;20325;-64
2021/10/02 01:34:37;;;;;;;12.02;8.27;;;;;;;10.13;100.00;95875.50;1023242;28;21219;-66
2021/10/02 01:35:26;;;;;;;10.75;7.72;;;;;;;10.15;100.00;95876.00;1023845;28;20963;-65
2021/10/02 01:47:09;;;;;;;10.10;7.70;;;;;;;10.06;100.00;95860.00;1019039;29;20283;-66
2021/10/02 01:47:36;;;;;;;9.93;7.05;;;;;;;10.13;100.00;95857.94;1026973;28;20328;-67
2021/10/02 01:48:07;;;;;;;10.13;7.65;;;;;;;10.13;100.00;95854.53;1025450;28;21086;-67
2021/10/02 01:48:39;;;;;;;11.00;7.63;;;;;;;10.10;100.00;95845.34;1023111;29;20278;-67
2021/10/02 01:49:09;;;;;;;12.95;7.80;;;;;;;10.17;100.00;95860.03;1029139;28;20038;-67
2021/10/02 01:49:54;;;;;;;10.57;8.27;;;;;;;10.17;100.00;95860.03;1031572;28;20817;-68
2021/10/02 01:50:34;;;;;;;9.52;7.15;;;;;;;10.20;100.00;95864.78;1031149;28;20061;-66
2021/10/02 01:51:04;;;;;;;10.13;7.32;;;;;;;10.20;100.00;95862.16;1027010;28;20324;-67
2021/10/02 01:51:35;;;;;;;9.52;6.70;;;;;;;10.24;100.00;95857.97;1021854;29;20556;-68
2021/10/02 01:52:06;;;;;;;12.38;7.53;;;;;;;10.26;100.00;95854.06;1021941;29;20023;-66
2021/10/02 01:52:39;;;;;;;11.60;7.70;;;;;;;10.27;100.00;95857.50;1019150;29;20655;-67
2021/10/02 01:53:09;;;;;;;8.27;6.75;;;;;;;10.22;100.00;95846.94;1023165;29;20023;-67
2021/10/02 01:53:42;;;;;;;10.23;7.13;;;;;;;10.32;100.00;95852.25;1031106;28;20257;-67
2021/10/02 01:54:13;;;;;;;9.38;7.32;;;;;;;10.33;100.00;95853.84;1023107;29;20027;-67
2021/10/02 01:54:43;;;;;;;10.20;7.20;;;;;;;10.34;100.00;95855.41;1019153;29;20274;-68
2021/10/02 01:55:14;;;;;;;10.32;7.50;;;;;;;10.35;100.00;95851.72;1025696;28;20296;-67
2021/10/02 01:55:44;;;;;;;8.88;7.20;;;;;;;10.34;100.00;95855.41;1027853;28;20034;-67
2021/10/02 01:56:17;;;;;;;9.15;7.13;;;;;;;10.31;100.00;95843.59;1023228;29;20047;-68
2021/10/02 01:56:48;;;;;;;10.43;7.60;;;;;;;10.22;100.00;95826.75;1030706;28;20504;-67
2021/10/02 01:57:18;;;;;;;10.18;7.13;;;;;;;10.30;100.00;95847.25;1031201;28;20273;-67
2021/10/02 01:57:59;;;;;;;10.25;7.38;;;;;;;10.36;100.00;95848.88;1022925;29;20050;-67
2021/10/02 01:58:30;;;;;;;10.35;7.22;;;;;;;10.39;100.00;95852.78;1026778;28;20030;-67
2021/10/02 01:59:01;;;;;;;9.07;7.03;;;;;;;10.31;100.00;95848.06;1023093;29;20749;-67
2021/10/02 01:59:31;;;;;;;8.85;7.07;;;;;;;10.32;100.00;95844.38;1023062;29;20066;-67
2021/10/02 02:00:03;;;;;;;9.25;7.10;;;;;;;10.40;100.00;95857.00;1023229;29;20023;-65
2021/10/02 02:00:40;;;;;;;9.60;7.00;;;;;;;10.35;100.00;95847.25;1026751;28;20102;-67
2021/10/02 02:01:11;;;;;;;10.82;7.25;;;;;;;10.45;100.00;95854.38;1021080;29;20278;-64
2021/10/02 02:01:43;;;;;;;9.70;7.18;;;;;;;10.49;100.00;95863.31;1027255;28;20270;-65
2021/10/02 02:02:14;;;;;;;8.80;7.07;;;;;;;10.48;100.00;95853.88;1031078;28;20030;-67
2021/10/02 02:02:46;;;;;;;10.70;7.20;;;;;;;10.51;100.00;95855.19;1030686;28;20636;-67
2021/10/02 02:03:21;;;;;;;8.80;7.05;;;;;;;10.49;100.00;95855.44;1026934;28;20023;-67
2021/10/02 02:03:55;;;;;;;7.65;6.15;;;;;;;10.54;100.00;95855.47;1023102;29;20277;-67
2021/10/02 02:04:26;;;;;;;10.27;7.32;;;;;;;10.47;100.00;95854.91;1022468;28;20274;-67
2021/10/02 02:04:57;;;;;;;9.05;7.13;;;;;;;10.56;100.00;95856.00;1018991;29;20302;-67
2021/10/02 02:05:28;;;;;;;8.45;6.82;;;;;;;10.53;100.00;95848.66;1019089;29;20274;-67
2021/10/02 02:05:58;;;;;;;9.40;7.50;;;;;;;10.52;100.00;95854.91;1028949;28;20129;-67
2021/10/02 02:06:29;;;;;;;9.57;7.28;;;;;;;10.54;100.00;95850.22;1031007;28;20014;-67
2021/10/02 02:06:59;;;;;;;8.45;6.95;;;;;;;10.53;100.00;95858.31;1027298;28;20035;-66
2021/10/02 02:07:30;;;;;;;9.02;7.13;;;;;;;10.52;100.00;95852.28;1023655;28;20046;-67
2021/10/02 02:08:03;;;;;;;11.65;8.07;;;;;;;10.51;100.00;95855.19;1026948;28;20470;-67
2021/10/02 02:08:33;;;;;;;9.18;7.50;;;;;;;10.50;100.00;95856.25;1027648;28;20193;-67
2021/10/02 02:09:04;;;;;;;9.68;7.47;;;;;;;10.50;100.00;95851.00;1026554;28;20301;-66
2021/10/02 02:09:38;;;;;;;8.63;6.78;;;;;;;10.47;100.00;95852.28;1026713;28;20584;-66
2021/10/02 02:10:08;;;;;;;10.13;7.20;;;;;;;10.44;100.00;95844.94;1022935;28;20090;-66
2021/10/02 02:10:39;;;;;;;8.68;7.15;;;;;;;10.46;100.00;95847.28;1023012;29;20279;-66
2021/10/02 02:11:09;;;;;;;9.73;7.53;;;;;;;10.41;100.00;95845.47;1027744;28;20529;-66
2021/10/02 02:11:40;;;;;;;11.32;7.13;;;;;;;10.44;100.00;95850.19;1030634;28;20245;-67
2021/10/02 02:12:11;;;;;;;11.32;7.85;;;;;;;10.43;100.00;95843.38;1026980;28;20018;-67
2021/10/02 02:12:42;;;;;;;9.77;7.32;;;;;;;10.44;100.00;95850.19;1018919;28;20024;-66
2021/10/02 02:13:13;;;;;;;10.65;7.57;;;;;;;10.44;100.00;95850.19;1014962;29;20264;-66
2021/10/02 02:13:44;;;;;;;12.23;7.22;;;;;;;10.43;100.00;95846.00;1030870;28;20695;-66
2021/10/02 02:14:14;;;;;;;10.43;7.72;;;;;;;10.40;100.00;95845.72;1034553;28;20348;-66
2021/10/02 02:14:45;;;;;;;8.80;7.05;;;;;;;10.39;100.00;95837.03;1029091;28;20018;-65
2021/10/02 02:15:16;;;;;;;9.30;6.90;;;;;;;10.45;100.00;95846.50;1022967;29;20019;-67
2021/10/02 02:15:47;;;;;;;8.57;7.15;;;;;;;10.45;100.00;95843.88;1028750;28;20054;-66
2021/10/02 02:16:17;;;;;;;10.73;7.35;;;;;;;10.40;100.00;95835.22;1026484;28;20341;-66
2021/10/02 02:16:48;;;;;;;10.77;7.75;;;;;;;10.49;100.00;95847.56;1027081;28;20030;-67
2021/10/02 02:17:20;;;;;;;7.90;6.90;;;;;;;10.50;100.00;95840.50;1018810;29;20011;-67
2021/10/02 02:17:53;;;;;;;9.57;7.38;;;;;;;10.54;100.00;95854.69;1019019;29;20584;-67
2021/10/02 02:18:24;;;;;;;10.38;7.07;;;;;;;10.53;100.00;95847.84;1022960;29;20684;-66
2021/10/02 02:18:54;;;;;;;6.97;6.25;;;;;;;10.48;100.00;95835.50;1030999;28;20265;-66
2021/10/02 02:19:25;;;;;;;9.00;6.85;;;;;;;10.52;100.00;95847.03;1024956;28;20019;-66
2021/10/02 02:19:56;;;;;;;8.73;6.97;;;;;;;10.52;100.00;95846.25;1024230;28;20015;-66
2021/10/02 02:20:32;;;;;;;9.43;7.63;;;;;;;10.50;100.00;95843.91;1020410;29;20020;-67
2021/10/02 02:21:04;;;;;;;9.38;6.90;;;;;;;10.50;100.00;95843.91;1023031;28;20676;-67
2021/10/02 02:21:35;;;;;;;8.75;6.45;;;;;;;10.52;100.00;95847.03;1019848;29;20251;-66
2021/10/02 02:22:05;;;;;;;10.05;6.85;;;;;;;10.53;100.00;95851.28;1021678;28;20247;-66
2021/10/02 02:22:36;;;;;;;8.85;6.07;;;;;;;10.59;100.00;95842.34;1019773;28;20098;-66
2021/10/02 02:23:08;;;;;;;9.00;6.65;;;;;;;10.57;100.00;95838.41;1020399;29;20019;-66
2021/10/02 02:23:38;;;;;;;9.40;6.55;;;;;;;10.59;100.00;95842.34;1019402;29;20019;-65
2021/10/02 02:24:09;;;;;;;9.77;6.55;;;;;;;10.67;100.00;95837.66;1019017;29;20801;-66
2021/10/02 02:24:39;;;;;;;7.93;5.90;;;;;;;10.65;100.00;95834.50;1019234;29;20405;-67
2021/10/02 02:25:10;;;;;;;9.98;6.70;;;;;;;10.71;100.00;95833.44;1026699;28;20034;-66
2021/10/02 02:25:41;;;;;;;9.35;7.10;;;;;;;10.72;100.00;95841.06;1026953;28;20019;-66
2021/10/02 02:26:11;;;;;;;8.52;6.80;;;;;;;10.73;100.00;95836.59;1026618;28;20099;-67
2021/10/02 02:26:42;;;;;;;8.68;6.30;;;;;;;10.73;100.00;95836.59;1023122;28;20047;-65
2021/10/02 02:27:12;;;;;;;10.32;6.75;;;;;;;10.74;100.00;95835.56;1022995;29;20046;-67
2021/10/02 02:27:43;;;;;;;13.10;7.22;;;;;;;10.72;100.00;95837.66;1021720;28;20019;-67
2021/10/02 02:28:13;;;;;;;8.63;6.55;;;;;;;10.69;100.00;95830.28;1025070;28;20023;-67
2021/10/02 02:28:44;;;;;;;10.02;7.00;;;;;;;10.71;100.00;95833.44;1022681;28;20019;-63
2021/10/02 02:29:14;;;;;;;8.95;6.78;;;;;;;10.68;100.00;95828.72;1022917;28;20019;-67
2021/10/02 02:29:45;;;;;;;8.48;6.35;;;;;;;10.74;100.00;95841.59;1022303;28;20070;-67
2021/10/02 02:30:15;;;;;;;10.18;6.85;;;;;;;10.74;100.00;95833.72;1030757;28;20050;-67
2021/10/02 02:30:46;;;;;;;9.98;7.05;;;;;;;10.72;100.00;95824.53;1028321;28;20014;-67
2021/10/02 02:31:16;;;;;;;11.75;6.30;;;;;;;10.74;100.00;95830.31;1028530;28;20018;-66
2021/10/02 02:31:46;;;;;;;8.52;6.80;;;;;;;10.71;100.00;95825.56;1022710;29;20019;-66
2021/10/02 02:32:18;;;;;;;8.02;6.50;;;;;;;10.68;100.00;95823.47;1026580;28;20086;-66
2021/10/02 02:32:52;;;;;;;9.10;6.65;;;;;;;10.73;100.00;95826.91;1027004;28;20033;-67
2021/10/02 02:33:22;;;;;;;9.55;6.60;;;;;;;10.67;100.00;95816.66;1027323;28;20281;-67
2021/10/02 02:33:52;;;;;;;9.75;6.78;;;;;;;10.72;100.00;95830.56;1022910;29;20421;-66
2021/10/02 02:34:24;;;;;;;8.82;6.55;;;;;;;10.72;100.00;95824.53;1018698;29;20098;-66
2021/10/02 02:34:54;;;;;;;8.02;6.45;;;;;;;10.69;100.00;95820.56;1018777;29;20019;-65
2021/10/02 02:35:25;;;;;;;9.75;7.15;;;;;;;10.72;100.00;95825.31;1024326;28;20254;-66
2021/10/02 02:35:55;;;;;;;8.05;6.57;;;;;;;10.70;100.00;95824.00;1027049;28;20066;-66
2021/10/02 02:36:26;;;;;;;9.63;6.47;;;;;;;10.65;100.00;95818.75;1022577;28;20058;-67
2021/10/02 02:36:57;;;;;;;7.22;6.10;;;;;;;10.68;100.00;95831.34;1019061;29;20488;-66
2021/10/02 02:37:30;;;;;;;8.50;6.70;;;;;;;10.69;100.00;95828.44;1021445;28;20565;-67
2021/10/02 02:38:01;;;;;;;8.48;6.22;;;;;;;10.70;100.00;95827.41;1025704;28;20373;-67
2021/10/02 02:38:31;;;;;;;11.27;6.45;;;;;;;10.72;100.00;95824.53;1022847;29;20266;-67
2021/10/02 02:39:02;;;;;;;7.65;6.30;;;;;;;10.72;100.00;95822.69;1025418;28;20058;-66
2021/10/02 02:39:32;;;;;;;10.02;6.60;;;;;;;10.67;100.00;95814.03;1031880;28;20023;-67
2021/10/02 02:40:06;;;;;;;8.70;6.85;;;;;;;10.73;100.00;95821.66;1026788;28;20035;-66
2021/10/02 02:40:36;;;;;;;10.15;6.25;;;;;;;10.71;100.00;95818.50;1029336;28;20045;-67
2021/10/02 02:41:07;;;;;;;7.55;6.32;;;;;;;10.73;100.00;95820.84;1023581;28;20610;-67
2021/10/02 02:41:37;;;;;;;9.15;6.55;;;;;;;10.71;100.00;95823.75;1026426;28;20023;-66
2021/10/02 02:42:08;;;;;;;8.40;6.68;;;;;;;10.72;100.00;95824.53;1026834;28;20427;-67
2021/10/02 02:42:38;;;;;;;9.52;6.40;;;;;;;10.67;100.00;95814.03;1023208;28;20553;-67
2021/10/02 02:43:10;;;;;;;7.00;5.97;;;;;;;10.72;100.00;95829.78;1031114;28;20404;-67
2021/10/02 02:43:40;;;;;;;10.18;6.90;;;;;;;10.68;100.00;95813.75;1030586;28;20022;-67
2021/10/02 02:44:11;;;;;;;7.03;5.80;;;;;;;10.68;100.00;95818.22;1028637;28;20348;-67
2021/10/02 02:44:42;;;;;;;8.98;6.38;;;;;;;10.61;100.00;95808.75;1026709;28;20035;-66
2021/10/02 02:45:14;;;;;;;9.40;6.88;;;;;;;10.65;100.00;95819.53;1031111;28;20030;-67
2021/10/02 02:45:48;;;;;;;8.25;6.20;;;;;;;10.68;100.00;95818.22;1027577;28;20026;-66
2021/10/02 02:46:30;;;;;;;9.82;6.13;;;;;;;10.74;100.00;95823.22;1035211;28;20261;-67
2021/10/02 02:47:04;;;;;;;7.32;5.97;;;;;;;10.75;100.00;95824.00;1026700;28;20269;-65
2021/10/02 02:47:42;;;;;;;9.35;6.15;;;;;;;10.75;100.00;95829.25;1024234;28;20804;-67
2021/10/02 02:48:14;;;;;;;10.85;6.20;;;;;;;10.73;100.00;95826.09;1029731;28;20770;-66
2021/10/02 02:48:51;;;;;;;8.68;6.93;;;;;;;10.69;100.00;95817.16;1030857;28;20305;-67
2021/10/02 02:49:30;;;;;;;7.63;5.72;;;;;;;10.78;100.00;95828.72;1026899;28;20260;-65
2021/10/02 02:50:15;;;;;;;8.82;6.43;;;;;;;10.80;100.00;95830.06;1024386;28;20254;-67
2021/10/02 02:50:54;;;;;;;9.32;6.80;;;;;;;10.81;100.00;95838.72;1019084;29;20279;-67
2021/10/02 02:51:33;;;;;;;7.80;6.22;;;;;;;10.76;100.00;95826.34;1018196;29;20363;-65
2021/10/02 02:52:35;;;;;;;9.27;6.20;;;;;;;10.79;100.00;95840.81;1022541;29;20353;-67
2021/10/02 02:53:30;;;;;;;6.88;6.00;;;;;;;10.80;100.00;95834.53;1029823;28;20297;-67
2021/10/02 02:54:11;;;;;;;8.70;6.15;;;;;;;10.79;100.00;95835.56;1029268;28;21104;-64
2021/10/02 02:54:47;;;;;;;9.88;6.03;;;;;;;10.79;100.00;95835.56;1027881;28;20692;-65
2021/10/02 02:55:21;;;;;;;7.35;5.72;;;;;;;10.80;100.00;95837.16;1033967;28;20038;-66
2021/10/02 02:55:54;;;;;;;7.45;5.78;;;;;;;10.74;100.00;95825.06;1024396;28;20341;-67
2021/10/02 02:56:41;;;;;;;8.32;5.57;;;;;;;10.81;100.00;95833.47;1020930;29;20271;-67
2021/10/02 02:57:13;;;;;;;6.70;5.65;;;;;;;10.78;100.00;95831.34;1022704;28;20839;-66
2021/10/02 02:57:47;;;;;;;9.52;6.15;;;;;;;10.79;100.00;95830.31;1026857;28;20313;-67
2021/10/02 02:58:17;;;;;;;8.30;6.60;;;;;;;10.76;100.00;95833.44;1019038;28;20278;-66
2021/10/02 02:58:52;;;;;;;9.00;6.03;;;;;;;10.81;100.00;95838.72;1022834;28;20824;-66
2021/10/02 02:59:25;;;;;;;7.28;6.07;;;;;;;10.81;100.00;95836.09;1026751;28;20113;-66
2021/10/02 03:00:07;;;;;;;10.57;6.03;;;;;;;10.81;100.00;95841.34;1026761;28;20278;-66
2021/10/02 03:00:43;;;;;;;8.50;5.93;;;;;;;10.77;100.00;95832.41;1022879;29;20282;-65
2021/10/02 03:01:14;;;;;;;10.32;6.55;;;;;;;10.80;100.00;95837.16;1018409;29;20302;-67
2021/10/02 03:01:44;;;;;;;8.23;5.90;;;;;;;10.77;100.00;95835.03;1018493;29;20790;-66
2021/10/02 03:02:18;;;;;;;9.07;6.47;;;;;;;10.76;100.00;95830.81;1026716;28;20026;-67
2021/10/02 03:02:56;;;;;;;8.48;5.90;;;;;;;10.81;100.00;95839.50;1026809;28;20721;-66
2021/10/02 03:03:28;;;;;;;7.93;6.45;;;;;;;10.77;100.00;95832.41;1026404;28;20361;-65
2021/10/02 03:03:59;;;;;;;8.38;6.43;;;;;;;10.73;100.00;95826.91;1023036;28;20286;-67
2021/10/02 03:04:33;;;;;;;10.75;6.38;;;;;;;10.83;100.00;95836.59;1026992;28;20274;-67
2021/10/02 03:05:04;;;;;;;9.25;6.13;;;;;;;10.82;100.00;95840.28;1030691;28;20022;-66
2021/10/02 03:05:37;;;;;;;7.40;6.03;;;;;;;10.76;100.00;95833.44;1029607;28;20377;-67
2021/10/02 03:06:09;;;;;;;7.53;5.82;;;;;;;10.80;100.00;95845.81;1027797;28;20772;-67
2021/10/02 03:06:43;;;;;;;7.63;6.07;;;;;;;10.79;100.00;95835.56;1023003;29;20274;-66
2021/10/02 03:07:16;;;;;;;7.15;5.85;;;;;;;10.79;100.00;95838.97;1026733;28;20289;-66
2021/10/02 03:07:57;;;;;;;8.75;6.55;;;;;;;10.80;100.00;95848.44;1028850;28;20270;-67
2021/10/02 03:08:31;;;;;;;10.50;5.88;;;;;;;10.72;100.00;95835.81;1033065;28;20241;-67
2021/10/02 03:09:01;;;;;;;7.95;5.90;;;;;;;10.75;100.00;95832.66;1031470;28;20034;-65
2021/10/02 03:09:33;;;;;;;9.00;6.00;;;;;;;10.74;100.00;95830.31;1021088;29;20290;-67
2021/10/02 03:10:04;;;;;;;8.45;6.20;;;;;;;10.79;100.00;95846.03;1018882;29;20488;-67
2021/10/02 03:10:34;;;;;;;9.00;6.38;;;;;;;10.79;100.00;95843.44;1018798;29;20714;-67
2021/10/02 03:11:05;;;;;;;8.77;5.80;;;;;;;10.76;100.00;95833.44;1026954;28;20273;-67
2021/10/02 03:11:35;;;;;;;9.27;6.50;;;;;;;10.78;100.00;95839.22;1018161;29;20047;-67
2021/10/02 03:12:07;;;;;;;9.63;6.72;;;;;;;10.74;100.00;95832.94;1022260;29;20051;-66
2021/10/02 03:12:37;;;;;;;7.85;6.03;;;;;;;10.80;100.00;95842.41;1026017;28;20665;-67
2021/10/02 03:13:10;;;;;;;8.88;6.13;;;;;;;10.78;100.00;95834.78;1026802;28;20284;-66
2021/10/02 03:13:41;;;;;;;8.73;6.20;;;;;;;10.79;100.00;95835.56;1019887;28;20535;-67
2021/10/02 03:14:11;;;;;;;7.72;6.15;;;;;;;10.81;100.00;95841.34;1019119;29;20255;-66
2021/10/02 03:14:43;;;;;;;7.75;6.32;;;;;;;10.81;100.00;95839.50;1022993;29;20034;-66
2021/10/02 03:15:15;;;;;;;8.60;6.22;;;;;;;10.75;100.00;95832.66;1027116;28;20129;-67
2021/10/02 03:15:47;;;;;;;9.95;6.35;;;;;;;10.79;100.00;95832.94;1033821;28;20864;-67
2021/10/02 03:16:17;;;;;;;8.45;6.00;;;;;;;10.74;100.00;95827.69;1030835;28;21056;-66
2021/10/02 03:16:50;;;;;;;8.65;5.70;;;;;;;10.82;100.00;95840.28;1026926;28;20313;-67
2021/10/02 03:17:24;;;;;;;8.95;6.25;;;;;;;10.83;100.00;95842.66;1019167;29;20486;-66
2021/10/02 03:17:54;;;;;;;8.43;6.57;;;;;;;10.80;100.00;95837.94;1023294;29;20282;-67
2021/10/02 03:18:25;;;;;;;10.15;6.32;;;;;;;10.82;100.00;95841.06;1022905;29;20306;-66
2021/10/02 03:18:59;;;;;;;8.27;6.70;;;;;;;10.83;100.00;95836.59;1027071;28;20023;-67
2021/10/02 03:19:29;;;;;;;8.88;5.90;;;;;;;10.82;100.00;95841.06;1023090;29;20255;-67
2021/10/02 03:20:01;;;;;;;7.32;6.00;;;;;;;10.85;100.00;95843.16;1019063;29;20275;-67
2021/10/02 03:20:31;;;;;;;8.45;6.25;;;;;;;10.86;100.00;95836.06;1026589;28;20076;-67
2021/10/02 03:21:02;;;;;;;7.55;5.90;;;;;;;10.82;100.00;95833.19;1026576;28;20344;-66
2021/10/02 03:21:32;;;;;;;8.35;6.72;;;;;;;10.83;100.00;95833.97;1018301;29;20043;-67
2021/10/02 03:22:07;;;;;;;7.78;5.63;;;;;;;10.86;100.00;95841.31;1019331;29;20127;-67
2021/10/02 03:22:37;;;;;;;8.73;6.45;;;;;;;10.84;100.00;95838.19;1026674;28;20088;-66
2021/10/02 03:23:08;;;;;;;7.70;6.03;;;;;;;10.83;100.00;95841.84;1030956;28;20320;-67
2021/10/02 03:23:38;;;;;;;8.18;6.20;;;;;;;10.84;100.00;95844.22;1027013;28;20023;-66
2021/10/02 03:24:09;;;;;;;7.57;5.90;;;;;;;10.79;100.00;95825.06;1030939;28;20034;-67
2021/10/02 03:24:39;;;;;;;8.65;6.15;;;;;;;10.80;100.00;95837.94;1026650;28;20492;-66
2021/10/02 03:25:10;;;;;;;7.85;6.32;;;;;;;10.80;100.00;95832.69;1026919;28;20022;-67
2021/10/02 03:25:40;;;;;;;7.53;6.13;;;;;;;10.76;100.00;95831.59;1026771;28;20030;-67
2021/10/02 03:26:11;;;;;;;9.02;6.60;;;;;;;10.81;100.00;95838.72;1026797;28;20022;-67
2021/10/02 03:26:41;;;;;;;7.57;6.32;;;;;;;10.83;100.00;95841.84;1026784;28;20053;-67
2021/10/02 03:27:12;;;;;;;7.38;6.00;;;;;;;10.83;100.00;95836.59;1022824;29;20494;-67
2021/10/02 03:27:42;;;;;;;12.05;6.53;;;;;;;10.81;100.00;95838.72;1022773;28;20038;-67
2021/10/02 03:28:13;;;;;;;8.00;6.80;;;;;;;10.76;100.00;95825.56;1026915;28;20022;-67
2021/10/02 03:28:43;;;;;;;7.78;5.93;;;;;;;10.75;100.00;95831.88;1018924;29;20122;-67
2021/10/02 03:29:14;;;;;;;7.82;6.25;;;;;;;10.79;100.00;95836.34;1027087;28;20026;-67
2021/10/02 03:29:44;;;;;;;7.97;5.70;;;;;;;10.78;100.00;95831.34;1025667;28;20039;-67
2021/10/02 03:30:15;;;;;;;9.15;6.25;;;;;;;10.78;100.00;95831.34;1027474;28;20034;-65
2021/10/02 03:30:46;;;;;;;8.18;6.35;;;;;;;10.76;100.00;95831.59;1027160;28;20476;-67
2021/10/02 03:31:17;;;;;;;10.30;6.60;;;;;;;10.76;100.00;95830.81;1022085;29;20023;-67
2021/10/02 03:31:48;;;;;;;7.47;6.07;;;;;;;10.80;100.00;95835.31;1023387;28;20024;-69
2021/10/02 03:32:20;;;;;;;8.45;6.00;;;;;;;10.73;100.00;95826.09;1027323;28;20281;-67
2021/10/02 03:32:51;;;;;;;7.82;5.82;;;;;;;10.77;100.00;95838.44;1023450;28;20275;-67
2021/10/02 03:33:24;;;;;;;9.30;5.82;;;;;;;10.76;100.00;95834.22;1023042;29;20639;-66
2021/10/02 03:33:56;;;;;;;8.20;6.50;;;;;;;10.78;100.00;95836.59;1019279;29;20510;-67
2021/10/02 03:34:26;;;;;;;7.32;6.07;;;;;;;10.77;100.00;95837.66;1023242;29;20725;-67